createdAt,value
2018-09-08T00:04:29.188Z,3.30
2018-09-08T00:09:23.997Z,3.27
2018-09-08T00:14:18.882Z,3.27
2018-09-08T00:19:18.710Z,2.97
2018-09-08T00:24:18.744Z,3.30
2018-09-08T00:29:17.657Z,3.17
2018-09-08T00:34:12.599Z,3.10
2018-09-08T00:39:11.047Z,3.30
2018-09-08T00:44:05.967Z,2.87
2018-09-08T00:49:00.790Z,3.60
2018-09-08T00:53:55.696Z,3.20
2018-09-08T00:58:55.611Z,3.47
2018-09-08T01:03:50.649Z,3.43
2018-09-08T01:08:45.479Z,3.53
2018-09-08T01:13:40.322Z,3.27
2018-09-08T01:18:36.998Z,3.70
2018-09-08T01:23:31.891Z,3.27
2018-09-08T01:28:26.769Z,3.10
2018-09-08T01:33:21.669Z,3.10
2018-09-08T01:38:16.638Z,3.13
2018-09-08T01:43:11.513Z,3.30
2018-09-08T01:48:06.718Z,3.23
2018-09-08T01:53:01.632Z,3.30
2018-09-08T01:57:56.505Z,3.23
2018-09-08T02:02:51.378Z,3.47
2018-09-08T02:07:46.285Z,3.60
2018-09-08T02:12:41.198Z,3.27
2018-09-08T02:17:36.108Z,4.03
2018-09-08T02:22:31.018Z,3.50
2018-09-08T02:27:25.911Z,3.67
2018-09-08T02:32:20.852Z,4.10
2018-09-08T02:37:15.721Z,3.33
2018-09-08T02:42:10.660Z,4.10
2018-09-08T02:47:05.842Z,3.83
2018-09-08T02:51:58.774Z,3.73
2018-09-08T02:56:51.672Z,4.00
2018-09-08T03:01:44.655Z,3.90
2018-09-08T03:06:37.590Z,3.70
2018-09-08T03:11:30.501Z,3.60
2018-09-08T03:16:23.409Z,3.63
2018-09-08T03:21:16.342Z,3.93
2018-09-08T03:26:09.246Z,3.90
2018-09-08T03:31:02.214Z,3.50
2018-09-08T03:35:55.150Z,3.23
2018-09-08T03:40:48.070Z,3.27
2018-09-08T03:45:40.981Z,3.53
2018-09-08T03:50:33.910Z,3.73
2018-09-08T03:55:26.817Z,3.87
2018-09-08T04:00:19.743Z,3.87
2018-09-08T04:05:14.634Z,3.67
2018-09-08T04:10:09.538Z,3.67
2018-09-08T04:15:04.564Z,3.97
2018-09-08T04:19:59.439Z,3.63
2018-09-08T04:24:54.341Z,4.07
2018-09-08T04:29:49.242Z,4.13
2018-09-08T04:34:44.085Z,4.50
2018-09-08T04:39:40.604Z,3.77
2018-09-08T04:44:35.440Z,3.70
2018-09-08T04:49:30.314Z,4.17
2018-09-08T04:54:25.172Z,3.87
2018-09-08T04:59:20.034Z,4.00
2018-09-08T05:04:14.913Z,4.13
2018-09-08T05:09:12.120Z,4.27
2018-09-08T05:14:07.058Z,4.13
2018-09-08T05:19:01.934Z,4.23
2018-09-08T05:23:56.777Z,4.20
2018-09-08T05:28:51.673Z,4.40
2018-09-08T05:33:46.841Z,5.13
2018-09-08T05:38:41.913Z,4.00
2018-09-08T05:43:36.771Z,4.53
2018-09-08T05:48:31.609Z,4.63
2018-09-08T05:53:26.501Z,4.60
2018-09-08T05:58:21.403Z,4.47
2018-09-08T06:03:16.291Z,4.90
2018-09-08T06:08:11.222Z,4.30
2018-09-08T06:13:07.160Z,4.90
2018-09-08T06:18:02.012Z,4.67
2018-09-08T06:22:56.929Z,4.33
2018-09-08T06:27:51.801Z,4.87
2018-09-08T06:32:46.735Z,5.27
2018-09-08T06:37:41.579Z,4.63
2018-09-08T06:42:36.507Z,4.07
2018-09-08T06:47:31.394Z,3.50
2018-09-08T06:52:26.265Z,4.27
2018-09-08T06:57:21.240Z,3.63
2018-09-08T07:02:16.331Z,4.40
2018-09-08T07:07:12.940Z,3.93
2018-09-08T07:12:07.891Z,3.10
2018-09-08T07:17:02.997Z,3.17
2018-09-08T07:21:57.913Z,3.20
2018-09-08T07:26:52.921Z,2.57
2018-09-08T07:31:47.941Z,2.77
2018-09-08T07:36:42.884Z,2.77
2018-09-08T07:41:37.761Z,2.40
2018-09-08T07:46:32.717Z,2.10
2018-09-08T07:51:27.605Z,2.13
2018-09-08T07:56:22.514Z,1.90
2018-09-08T08:01:17.474Z,2.47
2018-09-08T08:06:12.426Z,2.27
2018-09-08T08:11:07.627Z,2.07
2018-09-08T08:16:02.525Z,2.17
2018-09-08T08:20:57.477Z,2.90
2018-09-08T08:25:52.406Z,2.30
2018-09-08T08:30:47.306Z,2.70
2018-09-08T08:35:42.209Z,2.47
2018-09-08T08:40:43.774Z,2.70
2018-09-08T08:45:38.570Z,2.33
2018-09-08T08:52:52.602Z,2.27
2018-09-08T08:57:47.409Z,2.73
2018-09-08T09:02:42.215Z,2.40
2018-09-08T09:07:37.110Z,2.57
2018-09-08T09:12:31.843Z,2.60
2018-09-08T09:17:26.578Z,3.20
2018-09-08T09:22:37.820Z,3.83
2018-09-08T09:27:34.973Z,3.63
2018-09-08T09:32:29.762Z,3.60
2018-09-08T09:37:24.643Z,3.90
2018-09-08T09:42:19.448Z,3.83
2018-09-08T09:47:14.281Z,4.10
2018-09-08T09:52:09.086Z,3.03
2018-09-08T09:57:03.937Z,3.10
2018-09-08T10:02:04.528Z,3.83
2018-09-08T10:06:59.374Z,4.00
2018-09-08T10:11:54.254Z,3.50
2018-09-08T10:16:49.041Z,3.63
2018-09-08T10:21:44.557Z,3.40
2018-09-08T10:26:39.435Z,2.87
2018-09-08T10:31:34.238Z,3.00
2018-09-08T10:36:29.058Z,3.10
2018-09-08T10:41:24.458Z,2.80
2018-09-08T10:46:19.293Z,3.03
2018-09-08T10:53:31.840Z,3.60
2018-09-08T10:58:26.621Z,3.50
2018-09-08T11:03:21.417Z,3.70
2018-09-08T11:08:16.304Z,3.97
2018-09-08T11:13:11.156Z,4.00
2018-09-08T11:18:06.142Z,3.83
2018-09-08T11:23:01.058Z,3.53
2018-09-08T11:27:56.045Z,3.75
2018-09-08T11:32:50.956Z,3.65
2018-09-08T11:37:45.917Z,4.03
2018-09-08T11:42:40.789Z,3.80
2018-09-08T11:47:35.698Z,3.50
2018-09-08T11:52:30.524Z,3.23
2018-09-08T11:57:25.478Z,3.85
2018-09-08T12:02:20.458Z,3.02
2018-09-08T12:07:15.360Z,3.70
2018-09-08T12:12:10.261Z,3.70
2018-09-08T12:17:05.177Z,3.30
2018-09-08T12:22:00.112Z,3.37
2018-09-08T12:26:54.973Z,3.57
2018-09-08T12:31:49.909Z,2.93
2018-09-08T12:36:44.905Z,2.70
2018-09-08T12:41:39.778Z,2.73
2018-09-08T12:46:35.517Z,2.98
2018-09-08T12:51:30.427Z,2.80
2018-09-08T12:56:25.285Z,2.80
2018-09-08T13:01:20.068Z,2.53
2018-09-08T13:06:14.880Z,2.57
2018-09-08T13:11:09.719Z,2.27
2018-09-08T13:16:04.713Z,2.20
2018-09-08T13:20:59.634Z,2.40
2018-09-08T13:25:54.533Z,2.50
2018-09-08T13:30:49.444Z,2.27
2018-09-08T13:35:44.370Z,2.05
2018-09-08T13:40:39.273Z,2.20
2018-09-08T13:45:34.186Z,2.23
2018-09-08T13:50:29.433Z,2.30
2018-09-08T13:55:24.382Z,2.53
2018-09-08T14:00:19.219Z,1.60
2018-09-08T14:05:14.031Z,2.30
2018-09-08T14:10:08.845Z,2.40
2018-09-08T14:15:03.618Z,2.03
2018-09-08T14:19:58.426Z,1.83
2018-09-08T14:24:53.210Z,2.00
2018-09-08T14:29:47.998Z,1.93
2018-09-08T14:34:42.797Z,1.83
2018-09-08T14:39:37.637Z,2.13
2018-09-08T14:44:32.874Z,1.98
2018-09-08T14:49:27.736Z,2.10
2018-09-08T14:54:22.649Z,2.07
2018-09-08T14:59:17.538Z,2.10
2018-09-08T15:04:12.506Z,2.17
2018-09-08T15:09:08.464Z,2.20
2018-09-08T15:14:03.406Z,2.10
2018-09-08T15:18:58.325Z,2.23
2018-09-08T15:23:53.495Z,1.93
2018-09-08T15:28:48.393Z,2.00
2018-09-08T15:33:43.277Z,1.97
2018-09-08T15:38:38.149Z,1.80
2018-09-08T15:43:33.208Z,1.80
2018-09-08T15:48:28.088Z,2.07
2018-09-08T15:53:22.968Z,1.97
2018-09-08T15:58:18.060Z,1.90
2018-09-08T16:03:12.886Z,1.80
2018-09-08T16:08:07.817Z,1.93
2018-09-08T16:13:02.814Z,1.90
2018-09-08T16:17:57.812Z,1.90
2018-09-08T16:22:52.720Z,2.00
2018-09-08T16:27:47.685Z,2.00
2018-09-08T16:32:42.578Z,2.27
2018-09-08T16:37:37.486Z,1.90
2018-09-08T16:42:32.386Z,2.50
2018-09-08T16:47:27.294Z,2.00
2018-09-08T16:52:22.158Z,2.10
2018-09-08T16:57:17.042Z,2.27
2018-09-08T17:02:11.897Z,2.50
2018-09-08T17:07:06.946Z,2.50
2018-09-08T17:12:01.881Z,2.13
2018-09-08T17:16:56.754Z,2.30
2018-09-08T17:21:51.777Z,2.47
2018-09-08T17:26:46.677Z,2.87
2018-09-08T17:31:41.559Z,4.10
2018-09-08T17:36:36.449Z,4.30
2018-09-08T17:41:31.353Z,3.50
2018-09-08T17:46:26.214Z,3.13
2018-09-08T17:51:21.115Z,4.17
2018-09-08T17:56:16.047Z,4.57
2018-09-08T18:01:10.996Z,3.77
2018-09-08T18:06:05.961Z,3.27
2018-09-08T18:11:00.791Z,3.20
2018-09-08T18:15:55.772Z,3.00
2018-09-08T18:20:50.774Z,2.90
2018-09-08T18:25:48.824Z,3.30
2018-09-08T18:30:43.809Z,3.20
2018-09-08T18:35:38.789Z,3.20
2018-09-08T18:40:33.833Z,3.07
2018-09-08T18:45:28.785Z,2.90
2018-09-08T18:50:23.780Z,3.00
2018-09-08T18:55:18.694Z,3.10
2018-09-08T19:00:13.665Z,2.50
2018-09-08T19:05:08.738Z,2.50
2018-09-08T19:10:07.401Z,2.27
2018-09-08T19:15:07.425Z,2.80
2018-09-08T19:20:08.048Z,2.77
2018-09-08T19:25:02.902Z,2.60
2018-09-08T19:30:03.620Z,2.90
2018-09-08T19:35:04.913Z,3.47
2018-09-08T19:39:59.949Z,3.10
2018-09-08T19:44:54.953Z,3.10
2018-09-08T19:49:49.902Z,3.30
2018-09-08T19:54:44.789Z,3.10
2018-09-08T19:59:39.657Z,3.43
2018-09-08T20:04:34.537Z,3.70
2018-09-08T20:09:29.480Z,4.10
2018-09-08T20:14:24.387Z,4.27
2018-09-08T20:19:19.367Z,4.57
2018-09-08T20:24:14.406Z,4.13
2018-09-08T20:29:09.453Z,4.27
2018-09-08T20:34:04.449Z,4.33
2018-09-08T20:38:59.457Z,4.50
2018-09-08T20:43:54.497Z,4.13
2018-09-08T20:48:49.706Z,4.60
2018-09-08T20:53:44.771Z,5.10
2018-09-08T20:58:39.856Z,5.70
2018-09-08T21:03:34.758Z,5.50
2018-09-08T21:08:33.608Z,5.17
2018-09-08T21:13:28.647Z,4.83
2018-09-08T21:18:23.766Z,3.93
2018-09-08T21:23:18.884Z,4.23
2018-09-08T21:28:14.061Z,4.37
2018-09-08T21:33:09.077Z,4.37
2018-09-08T21:38:04.131Z,4.10
2018-09-08T21:42:59.238Z,4.43
2018-09-08T21:47:54.315Z,4.07
2018-09-08T21:52:49.437Z,4.30
2018-09-08T21:57:44.505Z,4.40
2018-09-08T22:02:39.578Z,4.20
2018-09-08T22:07:34.651Z,4.20
2018-09-08T22:12:29.811Z,4.03
2018-09-08T22:17:24.986Z,3.80
2018-09-08T22:22:20.094Z,4.10
2018-09-08T22:27:14.985Z,4.33
2018-09-08T22:32:09.917Z,3.67
2018-09-08T22:37:04.880Z,3.97
2018-09-08T22:41:59.795Z,3.87
2018-09-08T22:46:54.675Z,4.37
2018-09-08T22:51:49.554Z,4.40
2018-09-08T22:56:44.528Z,4.00
2018-09-08T23:01:39.435Z,4.20
2018-09-08T23:06:34.382Z,4.83
2018-09-08T23:11:29.285Z,4.17
2018-09-08T23:16:24.140Z,4.20
2018-09-08T23:21:18.991Z,4.70
2018-09-08T23:26:13.840Z,4.57
2018-09-08T23:31:08.730Z,3.70
2018-09-08T23:36:03.626Z,3.63
2018-09-08T23:40:58.491Z,4.00
2018-09-08T23:45:53.373Z,4.57
2018-09-08T23:50:48.315Z,5.03
2018-09-08T23:55:43.192Z,4.70
